createdAt,value
2019-03-11T00:00:41.589Z,10.63
2019-03-11T00:03:32.337Z,10.71
2019-03-11T00:09:55.046Z,10.78
2019-03-11T00:15:47.693Z,10.77
2019-03-11T00:18:58.469Z,10.88
2019-03-11T00:24:44.909Z,10.98
2019-03-11T00:27:25.929Z,11.03
2019-03-11T00:29:57.708Z,11.05
2019-03-11T00:32:48.777Z,10.94
2019-03-11T00:35:20.126Z,11.00
2019-03-11T00:38:10.889Z,10.81
2019-03-11T00:40:53.513Z,10.83
2019-03-11T00:46:26.337Z,10.81
2019-03-11T00:52:47.553Z,11.01
2019-03-11T01:01:08.304Z,10.81
2019-03-11T01:03:41.436Z,10.80
2019-03-11T01:06:14.030Z,10.72
2019-03-11T01:09:06.026Z,10.86
2019-03-11T01:11:56.483Z,10.80
2019-03-11T01:15:06.281Z,10.91
2019-03-11T01:17:36.982Z,11.16
2019-03-11T01:20:08.140Z,11.24
2019-03-11T01:22:38.862Z,11.37
2019-03-11T01:25:09.816Z,11.43
2019-03-11T01:28:00.495Z,11.46
2019-03-11T01:30:31.443Z,11.36
2019-03-11T01:33:02.256Z,11.55
2019-03-11T01:35:54.187Z,11.55
2019-03-11T01:38:25.959Z,11.69
2019-03-11T01:40:56.690Z,11.57
2019-03-11T01:43:47.274Z,11.62
2019-03-11T01:46:18.945Z,11.61
2019-03-11T01:49:10.899Z,11.48
2019-03-11T01:51:41.705Z,11.40
2019-03-11T01:54:13.431Z,11.31
2019-03-11T01:57:03.279Z,11.14
2019-03-11T01:59:34.064Z,11.04
2019-03-11T02:05:37.443Z,10.74
2019-03-11T02:08:20.372Z,10.35
2019-03-11T02:10:41.171Z,10.54
2019-03-11T02:13:11.884Z,10.67
2019-03-11T02:18:54.334Z,10.40
2019-03-11T02:21:25.257Z,10.58
2019-03-11T02:23:56.003Z,10.67
2019-03-11T02:29:55.901Z,10.52
2019-03-11T02:35:29.980Z,10.56
2019-03-11T02:38:00.862Z,10.60
2019-03-11T02:40:31.802Z,10.65
2019-03-11T02:49:08.378Z,10.99
2019-03-11T02:51:50.657Z,10.99
2019-03-11T02:54:40.544Z,11.17
2019-03-11T02:57:12.233Z,11.38
2019-03-11T02:59:46.943Z,11.34
2019-03-11T03:02:55.618Z,11.36
2019-03-11T03:08:29.856Z,11.37
2019-03-11T03:14:04.070Z,11.16
2019-03-11T03:19:36.393Z,10.97
2019-03-11T03:22:07.404Z,10.97
2019-03-11T03:24:57.796Z,10.96
2019-03-11T03:30:31.524Z,10.88
2019-03-11T03:33:21.379Z,11.41
2019-03-11T03:35:53.193Z,11.22
2019-03-11T03:41:29.480Z,11.03
2019-03-11T03:44:01.228Z,11.11
2019-03-11T03:46:56.633Z,10.95
2019-03-11T03:49:28.406Z,10.77
2019-03-11T03:55:26.166Z,11.01
2019-03-11T03:58:06.711Z,11.27
2019-03-11T04:00:47.365Z,11.27
2019-03-11T04:03:38.081Z,11.46
2019-03-11T04:06:11.495Z,11.40
2019-03-11T04:09:21.418Z,11.39
2019-03-11T04:11:53.028Z,11.39
2019-03-11T04:14:24.313Z,11.59
2019-03-11T04:20:05.901Z,11.79
2019-03-11T04:22:39.485Z,11.85
2019-03-11T04:34:27.696Z,11.76
2019-03-11T04:36:58.355Z,11.68
2019-03-11T04:40:08.798Z,11.59
2019-03-11T04:42:49.867Z,11.55
2019-03-11T04:45:39.700Z,11.59
2019-03-11T04:51:19.886Z,11.43
2019-03-11T04:53:50.622Z,11.51
2019-03-11T04:56:22.372Z,11.52
2019-03-11T04:59:25.193Z,11.49
2019-03-11T05:01:56.101Z,11.56
2019-03-11T05:04:27.743Z,11.61
2019-03-11T05:07:18.563Z,11.64
2019-03-11T05:10:08.117Z,10.82
2019-03-11T05:12:42.241Z,10.38
2019-03-11T05:18:06.717Z,10.03
2019-03-11T05:21:16.618Z,9.54
2019-03-11T05:24:11.706Z,9.56
2019-03-11T05:38:53.062Z,9.06
2019-03-11T05:41:25.265Z,9.18
2019-03-11T05:43:56.246Z,9.46
2019-03-11T05:46:29.045Z,9.38
2019-03-11T05:49:01.363Z,9.37
2019-03-11T05:51:52.020Z,9.40
2019-03-11T05:54:23.595Z,9.50
2019-03-11T05:57:14.117Z,9.41
2019-03-11T06:05:59.299Z,9.38
2019-03-11T06:08:40.016Z,9.29
2019-03-11T06:11:30.162Z,9.18
2019-03-11T06:14:21.397Z,8.97
2019-03-11T06:20:41.866Z,9.01
2019-03-11T06:23:32.118Z,8.78
2019-03-11T06:26:22.860Z,8.64
2019-03-11T06:28:54.706Z,8.43
2019-03-11T06:31:48.185Z,8.33
2019-03-11T06:34:39.070Z,8.25
2019-03-11T06:37:29.866Z,8.07
2019-03-11T06:40:20.789Z,8.17
2019-03-11T06:43:12.264Z,8.19
2019-03-11T06:46:01.841Z,8.08
2019-03-11T06:48:52.668Z,8.08
2019-03-11T06:51:43.813Z,8.00
2019-03-11T06:54:33.759Z,8.27
2019-03-11T07:00:27.636Z,9.06
2019-03-11T07:02:58.542Z,9.82
2019-03-11T07:05:29.356Z,10.31
2019-03-11T07:08:03.127Z,10.64
2019-03-11T07:10:35.896Z,10.75
2019-03-11T07:13:26.827Z,10.96
2019-03-11T07:15:57.869Z,10.86
2019-03-11T07:18:29.786Z,10.90
2019-03-11T07:21:20.835Z,10.86
2019-03-11T07:24:32.160Z,10.81
2019-03-11T07:27:22.919Z,10.99
2019-03-11T07:36:06.022Z,11.18
2019-03-11T07:38:55.840Z,10.86
2019-03-11T07:41:29.757Z,11.06
2019-03-11T07:44:20.464Z,10.96
2019-03-11T07:46:51.418Z,10.94
2019-03-11T07:49:41.292Z,11.34
2019-03-11T07:55:28.838Z,11.85
2019-03-11T07:58:12.767Z,11.80
2019-03-11T08:00:54.342Z,12.17
2019-03-11T08:03:38.160Z,11.99
2019-03-11T08:06:31.317Z,11.99
2019-03-11T08:12:12.819Z,12.12
2019-03-11T08:14:45.612Z,12.12
2019-03-11T08:17:48.607Z,12.10
2019-03-11T08:20:10.999Z,12.10
2019-03-11T08:22:42.688Z,11.52
2019-03-11T08:25:14.539Z,11.85
2019-03-11T08:27:48.959Z,11.60
2019-03-11T08:30:38.684Z,11.33
2019-03-11T08:33:10.532Z,12.03
2019-03-11T08:35:55.293Z,12.06
2019-03-11T08:38:13.890Z,12.11
2019-03-11T08:40:45.553Z,12.18
2019-03-11T08:43:40.319Z,12.62
2019-03-11T08:46:12.056Z,13.37
2019-03-11T08:48:45.372Z,13.81
2019-03-11T08:58:01.201Z,13.85
2019-03-11T09:00:50.917Z,14.28
2019-03-11T09:04:01.994Z,14.35
2019-03-11T09:06:33.689Z,13.89
2019-03-11T09:09:07.270Z,13.54
2019-03-11T09:12:16.042Z,13.36
2019-03-11T09:15:06.027Z,13.25
2019-03-11T09:17:39.320Z,13.36
2019-03-11T09:23:41.141Z,13.32
2019-03-11T09:29:07.590Z,12.36
2019-03-11T09:31:57.351Z,11.62
2019-03-11T09:34:28.267Z,10.73
2019-03-11T09:37:30.782Z,10.81
2019-03-11T09:39:51.463Z,11.00
2019-03-11T09:45:34.516Z,10.70
2019-03-11T09:48:25.676Z,10.95
2019-03-11T09:50:59.049Z,10.64
2019-03-11T09:54:08.045Z,11.05
2019-03-11T09:56:43.688Z,11.81
2019-03-11T09:59:27.200Z,12.21
2019-03-11T10:02:17.154Z,12.34
2019-03-11T10:05:08.278Z,12.46
2019-03-11T10:07:54.164Z,12.59
2019-03-11T10:10:31.399Z,12.89
2019-03-11T10:15:48.975Z,12.73
2019-03-11T10:18:21.392Z,13.02
2019-03-11T10:21:11.278Z,13.47
2019-03-11T10:24:20.150Z,13.65
2019-03-11T10:27:29.108Z,14.13
2019-03-11T10:30:12.666Z,13.72
2019-03-11T10:32:52.409Z,13.59
2019-03-11T10:41:21.133Z,12.79
2019-03-11T10:44:10.702Z,13.14
2019-03-11T10:46:44.849Z,13.17
2019-03-11T10:49:34.752Z,13.17
2019-03-11T10:52:26.212Z,12.92
2019-03-11T10:55:49.220Z,13.12
2019-03-11T11:01:50.239Z,13.30
2019-03-11T11:04:21.197Z,13.06
2019-03-11T11:07:29.901Z,13.31
2019-03-11T11:10:01.737Z,13.24
2019-03-11T11:12:52.088Z,13.44
2019-03-11T11:15:42.802Z,13.57
2019-03-11T11:18:33.586Z,13.71
2019-03-11T11:21:04.289Z,14.05
2019-03-11T11:23:37.649Z,14.08
2019-03-11T11:29:39.525Z,14.77
2019-03-11T11:35:10.788Z,14.62
2019-03-11T11:41:31.275Z,15.02
2019-03-11T11:44:20.788Z,14.98
2019-03-11T11:47:14.406Z,15.38
2019-03-11T11:55:58.283Z,15.08
2019-03-11T11:59:01.914Z,15.66
2019-03-11T12:01:23.299Z,16.03
2019-03-11T12:07:21.753Z,16.13
2019-03-11T12:10:12.738Z,16.13
2019-03-11T12:13:09.863Z,16.67
2019-03-11T12:16:02.422Z,16.68
2019-03-11T12:18:53.346Z,15.32
2019-03-11T12:21:43.991Z,15.55
2019-03-11T12:24:29.671Z,16.14
2019-03-11T12:27:22.592Z,16.14
2019-03-11T12:29:54.199Z,16.47
2019-03-11T12:33:08.795Z,16.09
2019-03-11T12:35:39.722Z,15.98
2019-03-11T12:50:38.331Z,16.60
2019-03-11T12:53:28.804Z,16.59
2019-03-11T12:56:38.775Z,16.24
2019-03-11T12:59:29.490Z,16.64
2019-03-11T13:05:03.201Z,16.81
2019-03-11T13:07:34.838Z,16.52
2019-03-11T13:13:31.400Z,17.34
2019-03-11T13:16:02.064Z,17.68
2019-03-11T13:18:40.101Z,17.86
2019-03-11T13:21:32.658Z,17.90
2019-03-11T13:27:12.204Z,17.43
2019-03-11T13:30:26.110Z,18.18
2019-03-11T13:33:27.700Z,18.78
2019-03-11T13:36:09.479Z,17.66
2019-03-11T13:42:08.860Z,17.34
2019-03-11T13:44:53.760Z,17.32
2019-03-11T13:50:41.580Z,17.49
2019-03-11T13:53:15.134Z,15.96
2019-03-11T13:59:11.040Z,15.08
2019-03-11T14:02:02.840Z,15.08
2019-03-11T14:04:42.692Z,15.12
2019-03-11T14:10:16.379Z,15.43
2019-03-11T14:13:26.855Z,14.77
2019-03-11T14:16:16.695Z,14.96
2019-03-11T14:19:07.401Z,15.67
2019-03-11T14:22:11.918Z,15.94
2019-03-11T14:25:15.763Z,16.20
2019-03-11T14:28:17.503Z,16.15
2019-03-11T14:30:51.939Z,15.86
2019-03-11T14:44:59.087Z,15.69
2019-03-11T14:53:43.922Z,15.53
2019-03-11T14:59:26.977Z,15.71
2019-03-11T15:05:03.068Z,15.93
2019-03-11T15:13:57.433Z,12.26
2019-03-11T15:17:06.949Z,12.43
2019-03-11T15:19:38.097Z,12.51
2019-03-11T15:22:09.602Z,12.86
2019-03-11T15:27:52.369Z,13.80
2019-03-11T15:30:45.054Z,13.96
2019-03-11T15:36:44.057Z,14.85
2019-03-11T15:45:37.765Z,16.00
2019-03-11T15:47:59.963Z,15.97
2019-03-11T15:50:49.729Z,15.65
2019-03-11T15:53:21.439Z,15.82
2019-03-11T15:55:53.299Z,15.83
2019-03-11T16:01:26.278Z,15.50
2019-03-11T16:03:58.118Z,14.73
2019-03-11T16:06:44.111Z,13.93
2019-03-11T16:12:17.042Z,14.04
2019-03-11T16:18:46.900Z,14.09
2019-03-11T16:21:58.034Z,14.62
2019-03-11T16:34:13.133Z,14.99
2019-03-11T16:36:50.366Z,14.88
2019-03-11T16:39:40.793Z,14.66
2019-03-11T16:45:40.000Z,15.34
2019-03-11T16:52:00.501Z,14.65
2019-03-11T16:55:02.311Z,14.37
2019-03-11T17:00:41.188Z,13.88
2019-03-11T17:03:34.261Z,13.80
2019-03-11T17:12:52.243Z,13.45
2019-03-11T17:15:44.055Z,13.05
2019-03-11T17:21:17.518Z,13.04
2019-03-11T17:26:52.237Z,12.92
2019-03-11T17:30:03.166Z,12.97
2019-03-11T17:32:36.803Z,12.99
2019-03-11T17:35:14.910Z,12.74
2019-03-11T17:37:46.497Z,12.90
2019-03-11T17:40:17.620Z,12.79
2019-03-11T17:42:57.916Z,12.79
2019-03-11T17:51:34.719Z,13.01
2019-03-11T17:57:10.004Z,12.77
2019-03-11T18:00:38.491Z,13.11
2019-03-11T18:09:21.454Z,12.71
2019-03-11T18:11:52.210Z,12.74
2019-03-11T18:14:28.308Z,12.83
2019-03-11T18:17:18.971Z,12.82
2019-03-11T18:23:06.299Z,12.59
2019-03-11T18:26:19.270Z,12.52
2019-03-11T18:28:50.959Z,12.65
2019-03-11T18:38:10.813Z,12.66
2019-03-11T18:40:42.905Z,12.66
2019-03-11T18:46:56.361Z,12.61
2019-03-11T18:52:54.550Z,12.43
2019-03-11T18:56:18.465Z,12.50
2019-03-11T18:58:40.015Z,12.57
2019-03-11T19:01:48.446Z,12.61
2019-03-11T19:04:44.181Z,12.71
2019-03-11T19:12:57.659Z,12.73
2019-03-11T19:18:32.369Z,12.53
2019-03-11T19:21:41.876Z,12.36
2019-03-11T19:27:26.401Z,12.00
2019-03-11T19:33:27.337Z,12.40
2019-03-11T19:36:38.116Z,12.18
2019-03-11T19:42:20.298Z,12.56
2019-03-11T19:50:36.365Z,12.75
2019-03-11T19:53:07.279Z,12.63
2019-03-11T19:55:58.616Z,12.72
2019-03-11T19:59:06.487Z,12.92
2019-03-11T20:04:36.788Z,12.59
2019-03-11T20:07:22.948Z,12.55
2019-03-11T20:10:13.939Z,12.55
2019-03-11T20:13:01.740Z,12.35
2019-03-11T20:15:53.879Z,12.15
2019-03-11T20:18:27.087Z,12.40
2019-03-11T20:24:32.155Z,12.38
2019-03-11T20:32:58.305Z,12.37
2019-03-11T20:41:34.548Z,12.36
2019-03-11T20:44:24.906Z,12.40
2019-03-11T20:50:26.652Z,12.16
2019-03-11T20:56:19.966Z,12.17
2019-03-11T21:02:11.141Z,12.47
2019-03-11T21:04:45.163Z,12.17
2019-03-11T21:13:28.353Z,11.93
2019-03-11T21:15:59.472Z,12.06
2019-03-11T21:30:51.838Z,12.48
2019-03-11T21:33:42.241Z,12.39
2019-03-11T21:45:34.372Z,12.31
2019-03-11T21:48:34.453Z,12.51
2019-03-11T21:51:15.157Z,12.51
2019-03-11T21:54:23.953Z,12.56
2019-03-11T22:00:51.252Z,12.54
2019-03-11T22:03:29.156Z,12.55
2019-03-11T22:06:37.842Z,12.65
2019-03-11T22:12:29.657Z,12.47
2019-03-11T22:14:50.373Z,12.43
2019-03-11T22:17:41.149Z,12.34
2019-03-11T22:23:14.590Z,12.54
2019-03-11T22:25:46.256Z,12.34
2019-03-11T22:28:18.078Z,12.55
2019-03-11T22:31:07.845Z,12.48
2019-03-11T22:33:38.595Z,12.64
2019-03-11T22:38:51.318Z,12.76
2019-03-11T22:41:44.416Z,12.68
2019-03-11T22:44:35.317Z,12.84
2019-03-11T22:47:37.516Z,12.99
2019-03-11T22:53:21.720Z,13.00
2019-03-11T22:56:12.559Z,13.14
2019-03-11T23:01:37.885Z,12.90
2019-03-11T23:04:22.956Z,12.95
2019-03-11T23:07:03.408Z,13.06
2019-03-11T23:12:57.338Z,12.88
2019-03-11T23:18:53.739Z,12.67
2019-03-11T23:27:26.092Z,12.60
2019-03-11T23:30:16.787Z,12.50
2019-03-11T23:32:48.470Z,12.47
2019-03-11T23:35:38.831Z,12.48
2019-03-11T23:38:09.768Z,12.39
2019-03-11T23:43:31.828Z,12.36
2019-03-11T23:46:03.059Z,12.34
2019-03-11T23:51:20.131Z,12.23
2019-03-11T23:53:51.743Z,12.25
2019-03-11T23:56:23.270Z,12.19
2019-03-11T23:58:55.006Z,12.12
